sensor_id;sensor_type;location;lat;lon;timestamp;P1;durP1;ratioP1;P2;durP2;ratioP2
5730;SDS011;2890;51.950;7.668;2023-09-19T00:00:15;14.83;;;4.53;;
5730;SDS011;2890;51.950;7.668;2023-09-19T00:02:45;9.07;;;3.77;;
5730;SDS011;2890;51.950;7.668;2023-09-19T00:05:13;6.10;;;3.17;;
5730;SDS011;2890;51.950;7.668;2023-09-19T00:07:40;11.90;;;2.90;;
5730;SDS011;2890;51.950;7.668;2023-09-19T00:10:07;9.40;;;3.60;;
5730;SDS011;2890;51.950;7.668;2023-09-19T00:12:35;7.00;;;3.20;;
5730;SDS011;2890;51.950;7.668;2023-09-19T00:15:01;8.10;;;3.53;;
5730;SDS011;2890;51.950;7.668;2023-09-19T00:17:31;7.70;;;3.50;;
5730;SDS011;2890;51.950;7.668;2023-09-19T00:19:58;7.00;;;3.30;;
5730;SDS011;2890;51.950;7.668;2023-09-19T00:22:32;9.20;;;2.80;;
5730;SDS011;2890;51.950;7.668;2023-09-19T00:24:58;14.67;;;3.60;;
5730;SDS011;2890;51.950;7.668;2023-09-19T00:27:26;7.37;;;3.23;;
5730;SDS011;2890;51.950;7.668;2023-09-19T00:32:46;9.10;;;3.00;;
5730;SDS011;2890;51.950;7.668;2023-09-19T00:35:15;7.20;;;3.40;;
5730;SDS011;2890;51.950;7.668;2023-09-19T00:37:42;7.00;;;3.63;;
5730;SDS011;2890;51.950;7.668;2023-09-19T00:40:09;7.10;;;3.30;;
5730;SDS011;2890;51.950;7.668;2023-09-19T00:42:37;8.10;;;2.80;;
5730;SDS011;2890;51.950;7.668;2023-09-19T00:45:04;6.20;;;2.70;;
5730;SDS011;2890;51.950;7.668;2023-09-19T00:47:32;9.07;;;3.30;;
5730;SDS011;2890;51.950;7.668;2023-09-19T00:49:58;9.80;;;2.90;;
5730;SDS011;2890;51.950;7.668;2023-09-19T00:52:26;9.07;;;3.07;;
5730;SDS011;2890;51.950;7.668;2023-09-19T00:54:53;15.93;;;4.33;;
5730;SDS011;2890;51.950;7.668;2023-09-19T00:57:20;7.40;;;3.10;;
5730;SDS011;2890;51.950;7.668;2023-09-19T00:59:47;11.90;;;3.10;;
5730;SDS011;2890;51.950;7.668;2023-09-19T01:02:15;6.80;;;2.73;;
5730;SDS011;2890;51.950;7.668;2023-09-19T01:04:42;6.43;;;3.30;;
5730;SDS011;2890;51.950;7.668;2023-09-19T01:07:09;11.37;;;3.10;;
5730;SDS011;2890;51.950;7.668;2023-09-19T01:09:37;11.43;;;3.17;;
5730;SDS011;2890;51.950;7.668;2023-09-19T01:12:04;10.50;;;2.93;;
5730;SDS011;2890;51.950;7.668;2023-09-19T01:14:34;12.00;;;3.23;;
5730;SDS011;2890;51.950;7.668;2023-09-19T01:17:05;10.67;;;3.10;;
5730;SDS011;2890;51.950;7.668;2023-09-19T01:19:42;10.77;;;3.13;;
5730;SDS011;2890;51.950;7.668;2023-09-19T01:22:35;9.30;;;2.87;;
5730;SDS011;2890;51.950;7.668;2023-09-19T01:25:18;10.20;;;3.80;;
5730;SDS011;2890;51.950;7.668;2023-09-19T01:28:06;6.70;;;3.33;;
5730;SDS011;2890;51.950;7.668;2023-09-19T01:30:37;12.07;;;4.17;;
5730;SDS011;2890;51.950;7.668;2023-09-19T01:33:08;14.70;;;3.53;;
5730;SDS011;2890;51.950;7.668;2023-09-19T01:35:37;12.27;;;3.33;;
5730;SDS011;2890;51.950;7.668;2023-09-19T01:38:04;11.10;;;3.50;;
5730;SDS011;2890;51.950;7.668;2023-09-19T01:40:31;17.60;;;3.93;;
5730;SDS011;2890;51.950;7.668;2023-09-19T01:43:03;15.57;;;4.00;;
5730;SDS011;2890;51.950;7.668;2023-09-19T01:45:37;12.23;;;3.20;;
5730;SDS011;2890;51.950;7.668;2023-09-19T01:48:13;9.87;;;3.53;;
5730;SDS011;2890;51.950;7.668;2023-09-19T01:50:52;11.57;;;4.30;;
5730;SDS011;2890;51.950;7.668;2023-09-19T01:53:23;10.73;;;4.00;;
5730;SDS011;2890;51.950;7.668;2023-09-19T01:55:52;9.60;;;4.10;;
5730;SDS011;2890;51.950;7.668;2023-09-19T01:58:20;15.30;;;4.33;;
5730;SDS011;2890;51.950;7.668;2023-09-19T02:00:49;8.33;;;2.97;;
5730;SDS011;2890;51.950;7.668;2023-09-19T02:03:17;11.40;;;3.93;;
5730;SDS011;2890;51.950;7.668;2023-09-19T02:05:47;8.30;;;3.43;;
5730;SDS011;2890;51.950;7.668;2023-09-19T02:08:15;13.27;;;3.90;;
5730;SDS011;2890;51.950;7.668;2023-09-19T02:10:43;8.20;;;3.67;;
5730;SDS011;2890;51.950;7.668;2023-09-19T02:13:14;10.20;;;3.30;;
5730;SDS011;2890;51.950;7.668;2023-09-19T02:15:42;12.93;;;4.10;;
5730;SDS011;2890;51.950;7.668;2023-09-19T02:18:10;9.20;;;3.83;;
5730;SDS011;2890;51.950;7.668;2023-09-19T02:20:37;11.47;;;4.00;;
5730;SDS011;2890;51.950;7.668;2023-09-19T02:23:04;14.03;;;4.50;;
5730;SDS011;2890;51.950;7.668;2023-09-19T02:25:31;10.03;;;4.20;;
5730;SDS011;2890;51.950;7.668;2023-09-19T02:27:57;12.63;;;3.90;;
5730;SDS011;2890;51.950;7.668;2023-09-19T02:30:26;6.53;;;3.77;;
5730;SDS011;2890;51.950;7.668;2023-09-19T02:32:52;9.20;;;3.93;;
5730;SDS011;2890;51.950;7.668;2023-09-19T02:35:20;14.67;;;3.70;;
5730;SDS011;2890;51.950;7.668;2023-09-19T02:37:47;15.10;;;4.80;;
5730;SDS011;2890;51.950;7.668;2023-09-19T02:40:15;9.33;;;3.40;;
5730;SDS011;2890;51.950;7.668;2023-09-19T02:42:45;10.13;;;3.13;;
5730;SDS011;2890;51.950;7.668;2023-09-19T02:45:15;15.60;;;3.70;;
5730;SDS011;2890;51.950;7.668;2023-09-19T02:47:43;12.90;;;3.70;;
5730;SDS011;2890;51.950;7.668;2023-09-19T02:50:10;10.20;;;2.63;;
5730;SDS011;2890;51.950;7.668;2023-09-19T02:52:40;6.63;;;3.00;;
5730;SDS011;2890;51.950;7.668;2023-09-19T02:55:08;10.43;;;3.70;;
5730;SDS011;2890;51.950;7.668;2023-09-19T02:57:35;9.43;;;3.17;;
5730;SDS011;2890;51.950;7.668;2023-09-19T03:00:06;8.53;;;3.20;;
5730;SDS011;2890;51.950;7.668;2023-09-19T03:02:35;7.70;;;2.90;;
5730;SDS011;2890;51.950;7.668;2023-09-19T03:05:02;10.47;;;3.07;;
5730;SDS011;2890;51.950;7.668;2023-09-19T03:07:30;10.83;;;2.90;;
5730;SDS011;2890;51.950;7.668;2023-09-19T03:09:58;15.30;;;3.83;;
5730;SDS011;2890;51.950;7.668;2023-09-19T03:12:24;9.70;;;2.93;;
5730;SDS011;2890;51.950;7.668;2023-09-19T03:14:51;8.47;;;2.80;;
5730;SDS011;2890;51.950;7.668;2023-09-19T03:17:18;12.97;;;4.17;;
5730;SDS011;2890;51.950;7.668;2023-09-19T03:19:45;14.87;;;3.13;;
5730;SDS011;2890;51.950;7.668;2023-09-19T03:22:11;16.83;;;3.77;;
5730;SDS011;2890;51.950;7.668;2023-09-19T03:24:38;5.90;;;2.90;;
5730;SDS011;2890;51.950;7.668;2023-09-19T03:27:08;8.47;;;3.10;;
5730;SDS011;2890;51.950;7.668;2023-09-19T03:29:35;10.30;;;3.23;;
5730;SDS011;2890;51.950;7.668;2023-09-19T03:32:02;6.27;;;3.10;;
5730;SDS011;2890;51.950;7.668;2023-09-19T03:34:29;7.87;;;2.73;;
5730;SDS011;2890;51.950;7.668;2023-09-19T03:36:55;6.60;;;3.23;;
5730;SDS011;2890;51.950;7.668;2023-09-19T03:39:22;11.20;;;3.27;;
5730;SDS011;2890;51.950;7.668;2023-09-19T03:41:49;12.43;;;3.40;;
5730;SDS011;2890;51.950;7.668;2023-09-19T03:44:17;7.30;;;2.70;;
5730;SDS011;2890;51.950;7.668;2023-09-19T03:46:43;11.33;;;3.40;;
5730;SDS011;2890;51.950;7.668;2023-09-19T03:49:10;7.53;;;3.60;;
5730;SDS011;2890;51.950;7.668;2023-09-19T03:51:37;10.63;;;3.10;;
5730;SDS011;2890;51.950;7.668;2023-09-19T03:54:06;13.77;;;3.50;;
5730;SDS011;2890;51.950;7.668;2023-09-19T03:56:33;16.87;;;3.40;;
5730;SDS011;2890;51.950;7.668;2023-09-19T03:58:59;13.70;;;2.90;;
5730;SDS011;2890;51.950;7.668;2023-09-19T04:01:27;8.30;;;3.17;;
5730;SDS011;2890;51.950;7.668;2023-09-19T04:03:57;6.70;;;2.80;;
5730;SDS011;2890;51.950;7.668;2023-09-19T04:06:23;11.03;;;3.47;;
5730;SDS011;2890;51.950;7.668;2023-09-19T04:08:52;9.80;;;3.10;;
5730;SDS011;2890;51.950;7.668;2023-09-19T04:11:19;10.10;;;3.00;;
5730;SDS011;2890;51.950;7.668;2023-09-19T04:13:46;11.87;;;2.87;;
5730;SDS011;2890;51.950;7.668;2023-09-19T04:16:12;12.87;;;3.27;;
5730;SDS011;2890;51.950;7.668;2023-09-19T04:18:40;10.40;;;3.13;;
5730;SDS011;2890;51.950;7.668;2023-09-19T04:21:07;13.83;;;3.60;;
5730;SDS011;2890;51.950;7.668;2023-09-19T04:23:33;10.33;;;3.00;;
5730;SDS011;2890;51.950;7.668;2023-09-19T04:26:00;8.30;;;3.60;;
5730;SDS011;2890;51.950;7.668;2023-09-19T04:28:28;10.73;;;3.63;;
5730;SDS011;2890;51.950;7.668;2023-09-19T04:30:56;8.90;;;3.30;;
5730;SDS011;2890;51.950;7.668;2023-09-19T04:33:22;7.40;;;2.60;;
5730;SDS011;2890;51.950;7.668;2023-09-19T04:35:50;8.10;;;3.20;;
5730;SDS011;2890;51.950;7.668;2023-09-19T04:38:17;10.77;;;3.40;;
5730;SDS011;2890;51.950;7.668;2023-09-19T04:40:44;12.43;;;2.97;;
5730;SDS011;2890;51.950;7.668;2023-09-19T04:43:10;11.93;;;2.80;;
5730;SDS011;2890;51.950;7.668;2023-09-19T04:45:38;12.30;;;3.00;;
5730;SDS011;2890;51.950;7.668;2023-09-19T04:48:05;16.57;;;3.97;;
5730;SDS011;2890;51.950;7.668;2023-09-19T04:50:33;8.43;;;2.70;;
5730;SDS011;2890;51.950;7.668;2023-09-19T04:53:01;12.03;;;3.03;;
5730;SDS011;2890;51.950;7.668;2023-09-19T04:55:29;11.27;;;2.73;;
5730;SDS011;2890;51.950;7.668;2023-09-19T04:57:58;19.23;;;3.40;;
5730;SDS011;2890;51.950;7.668;2023-09-19T05:00:24;12.30;;;3.33;;
5730;SDS011;2890;51.950;7.668;2023-09-19T05:02:53;13.73;;;3.70;;
5730;SDS011;2890;51.950;7.668;2023-09-19T05:05:21;8.90;;;2.80;;
5730;SDS011;2890;51.950;7.668;2023-09-19T05:07:49;8.67;;;2.70;;
5730;SDS011;2890;51.950;7.668;2023-09-19T05:10:17;8.57;;;3.10;;
5730;SDS011;2890;51.950;7.668;2023-09-19T05:12:44;8.93;;;3.20;;
5730;SDS011;2890;51.950;7.668;2023-09-19T05:15:12;12.03;;;3.40;;
5730;SDS011;2890;51.950;7.668;2023-09-19T05:17:40;14.73;;;3.87;;
5730;SDS011;2890;51.950;7.668;2023-09-19T05:20:07;13.23;;;3.43;;
5730;SDS011;2890;51.950;7.668;2023-09-19T05:22:38;14.80;;;3.00;;
5730;SDS011;2890;51.950;7.668;2023-09-19T05:25:06;9.13;;;2.83;;
5730;SDS011;2890;51.950;7.668;2023-09-19T05:27:35;12.20;;;2.90;;
5730;SDS011;2890;51.950;7.668;2023-09-19T05:30:01;18.10;;;3.10;;
5730;SDS011;2890;51.950;7.668;2023-09-19T05:32:28;7.43;;;3.13;;
5730;SDS011;2890;51.950;7.668;2023-09-19T05:34:55;10.50;;;3.77;;
5730;SDS011;2890;51.950;7.668;2023-09-19T05:37:22;18.57;;;3.10;;
5730;SDS011;2890;51.950;7.668;2023-09-19T05:39:51;8.23;;;2.80;;
5730;SDS011;2890;51.950;7.668;2023-09-19T05:42:18;6.90;;;3.13;;
5730;SDS011;2890;51.950;7.668;2023-09-19T05:44:45;8.93;;;2.73;;
5730;SDS011;2890;51.950;7.668;2023-09-19T05:47:12;8.67;;;3.00;;
5730;SDS011;2890;51.950;7.668;2023-09-19T05:49:39;9.80;;;2.70;;
5730;SDS011;2890;51.950;7.668;2023-09-19T05:52:06;8.43;;;2.93;;
5730;SDS011;2890;51.950;7.668;2023-09-19T05:54:32;13.17;;;3.27;;
5730;SDS011;2890;51.950;7.668;2023-09-19T05:56:59;8.63;;;3.00;;
5730;SDS011;2890;51.950;7.668;2023-09-19T05:59:26;8.17;;;2.80;;
5730;SDS011;2890;51.950;7.668;2023-09-19T06:01:54;9.13;;;2.80;;
5730;SDS011;2890;51.950;7.668;2023-09-19T06:04:21;8.47;;;3.03;;
5730;SDS011;2890;51.950;7.668;2023-09-19T06:06:48;15.00;;;3.40;;
5730;SDS011;2890;51.950;7.668;2023-09-19T06:09:16;8.97;;;2.93;;
5730;SDS011;2890;51.950;7.668;2023-09-19T06:11:42;11.30;;;2.90;;
5730;SDS011;2890;51.950;7.668;2023-09-19T06:14:09;8.83;;;2.80;;
5730;SDS011;2890;51.950;7.668;2023-09-19T06:16:36;10.93;;;2.90;;
5730;SDS011;2890;51.950;7.668;2023-09-19T06:19:05;6.23;;;2.50;;
5730;SDS011;2890;51.950;7.668;2023-09-19T06:21:33;9.00;;;3.10;;
5730;SDS011;2890;51.950;7.668;2023-09-19T06:24:00;14.30;;;3.30;;
5730;SDS011;2890;51.950;7.668;2023-09-19T06:26:26;13.27;;;3.03;;
5730;SDS011;2890;51.950;7.668;2023-09-19T06:28:54;11.13;;;2.80;;
5730;SDS011;2890;51.950;7.668;2023-09-19T06:31:20;8.60;;;2.80;;
5730;SDS011;2890;51.950;7.668;2023-09-19T06:33:48;6.87;;;2.93;;
5730;SDS011;2890;51.950;7.668;2023-09-19T06:36:16;10.00;;;3.13;;
5730;SDS011;2890;51.950;7.668;2023-09-19T06:38:42;13.73;;;2.87;;
5730;SDS011;2890;51.950;7.668;2023-09-19T06:41:09;8.20;;;2.70;;
5730;SDS011;2890;51.950;7.668;2023-09-19T06:43:39;9.30;;;3.03;;
5730;SDS011;2890;51.950;7.668;2023-09-19T06:46:06;17.67;;;3.03;;
5730;SDS011;2890;51.950;7.668;2023-09-19T06:48:33;8.63;;;2.60;;
5730;SDS011;2890;51.950;7.668;2023-09-19T06:51:00;6.00;;;2.53;;
5730;SDS011;2890;51.950;7.668;2023-09-19T06:53:31;9.83;;;3.30;;
5730;SDS011;2890;51.950;7.668;2023-09-19T06:55:57;9.37;;;3.23;;
5730;SDS011;2890;51.950;7.668;2023-09-19T06:58:24;8.33;;;2.60;;
5730;SDS011;2890;51.950;7.668;2023-09-19T07:00:50;9.77;;;3.33;;
5730;SDS011;2890;51.950;7.668;2023-09-19T07:03:17;8.93;;;3.00;;
5730;SDS011;2890;51.950;7.668;2023-09-19T07:05:43;7.93;;;3.40;;
5730;SDS011;2890;51.950;7.668;2023-09-19T07:08:10;8.83;;;3.23;;
5730;SDS011;2890;51.950;7.668;2023-09-19T07:10:38;9.90;;;2.60;;
5730;SDS011;2890;51.950;7.668;2023-09-19T07:13:07;7.30;;;3.07;;
5730;SDS011;2890;51.950;7.668;2023-09-19T07:15:36;9.77;;;3.20;;
5730;SDS011;2890;51.950;7.668;2023-09-19T07:18:06;10.00;;;3.00;;
5730;SDS011;2890;51.950;7.668;2023-09-19T07:20:36;7.07;;;3.00;;
5730;SDS011;2890;51.950;7.668;2023-09-19T07:23:03;13.53;;;3.77;;
5730;SDS011;2890;51.950;7.668;2023-09-19T07:25:31;23.57;;;4.03;;
5730;SDS011;2890;51.950;7.668;2023-09-19T07:27:59;6.50;;;2.90;;
5730;SDS011;2890;51.950;7.668;2023-09-19T07:30:26;10.30;;;3.33;;
5730;SDS011;2890;51.950;7.668;2023-09-19T07:32:53;9.63;;;3.20;;
5730;SDS011;2890;51.950;7.668;2023-09-19T07:35:19;8.73;;;3.37;;
5730;SDS011;2890;51.950;7.668;2023-09-19T07:37:46;7.97;;;3.30;;
5730;SDS011;2890;51.950;7.668;2023-09-19T07:40:14;5.70;;;2.67;;
5730;SDS011;2890;51.950;7.668;2023-09-19T07:42:41;11.57;;;3.50;;
5730;SDS011;2890;51.950;7.668;2023-09-19T07:45:10;9.77;;;2.93;;
5730;SDS011;2890;51.950;7.668;2023-09-19T07:47:39;14.57;;;3.30;;
5730;SDS011;2890;51.950;7.668;2023-09-19T07:50:06;13.67;;;3.13;;
5730;SDS011;2890;51.950;7.668;2023-09-19T07:52:32;14.53;;;3.80;;
5730;SDS011;2890;51.950;7.668;2023-09-19T07:54:59;11.33;;;3.10;;
5730;SDS011;2890;51.950;7.668;2023-09-19T07:57:26;9.50;;;3.30;;
5730;SDS011;2890;51.950;7.668;2023-09-19T07:59:54;11.63;;;2.97;;
5730;SDS011;2890;51.950;7.668;2023-09-19T08:02:21;10.87;;;4.23;;
5730;SDS011;2890;51.950;7.668;2023-09-19T08:04:48;8.23;;;3.10;;
5730;SDS011;2890;51.950;7.668;2023-09-19T08:07:17;6.70;;;2.97;;
5730;SDS011;2890;51.950;7.668;2023-09-19T08:09:43;7.50;;;3.03;;
5730;SDS011;2890;51.950;7.668;2023-09-19T08:12:13;7.77;;;3.20;;
5730;SDS011;2890;51.950;7.668;2023-09-19T08:14:40;12.97;;;3.83;;
5730;SDS011;2890;51.950;7.668;2023-09-19T08:17:07;7.60;;;2.70;;
5730;SDS011;2890;51.950;7.668;2023-09-19T08:19:35;6.13;;;2.50;;
5730;SDS011;2890;51.950;7.668;2023-09-19T08:22:06;8.97;;;3.10;;
5730;SDS011;2890;51.950;7.668;2023-09-19T08:24:35;11.63;;;2.97;;
5730;SDS011;2890;51.950;7.668;2023-09-19T08:27:03;7.30;;;3.30;;
5730;SDS011;2890;51.950;7.668;2023-09-19T08:29:31;8.10;;;3.13;;
5730;SDS011;2890;51.950;7.668;2023-09-19T08:31:57;10.73;;;3.37;;
5730;SDS011;2890;51.950;7.668;2023-09-19T08:34:24;9.73;;;3.97;;
5730;SDS011;2890;51.950;7.668;2023-09-19T08:36:53;8.43;;;3.57;;
5730;SDS011;2890;51.950;7.668;2023-09-19T08:39:21;10.87;;;3.70;;
5730;SDS011;2890;51.950;7.668;2023-09-19T08:41:48;12.10;;;3.23;;
5730;SDS011;2890;51.950;7.668;2023-09-19T08:44:14;10.87;;;3.27;;
5730;SDS011;2890;51.950;7.668;2023-09-19T08:46:41;8.20;;;3.07;;
5730;SDS011;2890;51.950;7.668;2023-09-19T08:49:08;9.33;;;3.50;;
5730;SDS011;2890;51.950;7.668;2023-09-19T08:51:42;14.07;;;3.50;;
5730;SDS011;2890;51.950;7.668;2023-09-19T08:54:16;11.63;;;3.20;;
5730;SDS011;2890;51.950;7.668;2023-09-19T08:56:47;8.70;;;4.27;;
5730;SDS011;2890;51.950;7.668;2023-09-19T08:59:14;10.47;;;4.07;;
5730;SDS011;2890;51.950;7.668;2023-09-19T09:01:41;9.13;;;3.50;;
5730;SDS011;2890;51.950;7.668;2023-09-19T09:04:08;8.50;;;4.00;;
5730;SDS011;2890;51.950;7.668;2023-09-19T09:06:38;7.77;;;3.10;;
5730;SDS011;2890;51.950;7.668;2023-09-19T09:09:05;11.03;;;3.50;;
5730;SDS011;2890;51.950;7.668;2023-09-19T09:11:35;11.37;;;3.50;;
5730;SDS011;2890;51.950;7.668;2023-09-19T09:14:04;8.97;;;3.70;;
5730;SDS011;2890;51.950;7.668;2023-09-19T09:16:32;8.33;;;3.60;;
5730;SDS011;2890;51.950;7.668;2023-09-19T09:18:59;11.13;;;2.83;;
5730;SDS011;2890;51.950;7.668;2023-09-19T09:21:26;7.93;;;3.33;;
5730;SDS011;2890;51.950;7.668;2023-09-19T09:23:53;4.90;;;3.03;;
5730;SDS011;2890;51.950;7.668;2023-09-19T09:26:24;6.67;;;3.57;;
5730;SDS011;2890;51.950;7.668;2023-09-19T09:29:10;12.53;;;4.17;;
5730;SDS011;2890;51.950;7.668;2023-09-19T09:31:36;12.50;;;4.20;;
5730;SDS011;2890;51.950;7.668;2023-09-19T09:34:03;11.60;;;3.90;;
5730;SDS011;2890;51.950;7.668;2023-09-19T09:36:36;10.80;;;3.67;;
5730;SDS011;2890;51.950;7.668;2023-09-19T09:39:03;11.37;;;3.80;;
5730;SDS011;2890;51.950;7.668;2023-09-19T09:41:42;9.80;;;3.40;;
5730;SDS011;2890;51.950;7.668;2023-09-19T09:44:12;12.50;;;3.67;;
5730;SDS011;2890;51.950;7.668;2023-09-19T09:46:42;9.27;;;3.33;;
5730;SDS011;2890;51.950;7.668;2023-09-19T09:49:24;9.03;;;3.30;;
5730;SDS011;2890;51.950;7.668;2023-09-19T09:51:58;9.50;;;3.87;;
5730;SDS011;2890;51.950;7.668;2023-09-19T09:54:30;7.87;;;3.60;;
5730;SDS011;2890;51.950;7.668;2023-09-19T09:57:03;8.13;;;3.70;;
5730;SDS011;2890;51.950;7.668;2023-09-19T09:59:45;7.87;;;3.47;;
5730;SDS011;2890;51.950;7.668;2023-09-19T10:02:20;9.37;;;3.63;;
5730;SDS011;2890;51.950;7.668;2023-09-19T10:04:54;10.93;;;3.90;;
5730;SDS011;2890;51.950;7.668;2023-09-19T10:07:33;11.47;;;4.40;;
5730;SDS011;2890;51.950;7.668;2023-09-19T10:10:03;14.10;;;4.10;;
5730;SDS011;2890;51.950;7.668;2023-09-19T10:12:42;7.77;;;3.80;;
5730;SDS011;2890;51.950;7.668;2023-09-19T10:15:16;7.43;;;4.07;;
5730;SDS011;2890;51.950;7.668;2023-09-19T10:17:49;12.37;;;3.07;;
5730;SDS011;2890;51.950;7.668;2023-09-19T10:20:23;14.90;;;3.90;;
5730;SDS011;2890;51.950;7.668;2023-09-19T10:23:00;10.07;;;4.10;;
5730;SDS011;2890;51.950;7.668;2023-09-19T10:25:36;12.23;;;4.20;;
5730;SDS011;2890;51.950;7.668;2023-09-19T10:28:12;8.40;;;3.37;;
5730;SDS011;2890;51.950;7.668;2023-09-19T10:30:47;11.50;;;3.90;;
5730;SDS011;2890;51.950;7.668;2023-09-19T10:33:19;12.13;;;3.40;;
5730;SDS011;2890;51.950;7.668;2023-09-19T10:35:51;10.60;;;3.67;;
5730;SDS011;2890;51.950;7.668;2023-09-19T10:38:23;8.23;;;3.53;;
5730;SDS011;2890;51.950;7.668;2023-09-19T10:40:51;7.60;;;3.20;;
5730;SDS011;2890;51.950;7.668;2023-09-19T10:43:20;8.30;;;3.20;;
5730;SDS011;2890;51.950;7.668;2023-09-19T10:45:57;7.20;;;3.60;;
5730;SDS011;2890;51.950;7.668;2023-09-19T10:48:35;5.97;;;3.20;;
5730;SDS011;2890;51.950;7.668;2023-09-19T10:51:14;10.67;;;3.77;;
5730;SDS011;2890;51.950;7.668;2023-09-19T10:53:51;7.90;;;3.53;;
5730;SDS011;2890;51.950;7.668;2023-09-19T10:56:30;13.80;;;3.50;;
5730;SDS011;2890;51.950;7.668;2023-09-19T10:59:07;8.60;;;3.97;;
5730;SDS011;2890;51.950;7.668;2023-09-19T11:01:45;13.00;;;3.80;;
5730;SDS011;2890;51.950;7.668;2023-09-19T11:04:26;7.63;;;3.60;;
5730;SDS011;2890;51.950;7.668;2023-09-19T11:07:01;6.50;;;3.10;;
5730;SDS011;2890;51.950;7.668;2023-09-19T11:09:45;5.87;;;3.60;;
5730;SDS011;2890;51.950;7.668;2023-09-19T11:12:27;5.53;;;3.33;;
5730;SDS011;2890;51.950;7.668;2023-09-19T11:24:29;6.77;;;3.33;;
5730;SDS011;2890;51.950;7.668;2023-09-19T11:27:13;10.40;;;4.10;;
5730;SDS011;2890;51.950;7.668;2023-09-19T11:29:42;14.03;;;3.80;;
5730;SDS011;2890;51.950;7.668;2023-09-19T11:32:08;5.63;;;2.77;;
5730;SDS011;2890;51.950;7.668;2023-09-19T11:34:42;10.60;;;3.77;;
5730;SDS011;2890;51.950;7.668;2023-09-19T11:40:37;10.50;;;3.30;;
5730;SDS011;2890;51.950;7.668;2023-09-19T11:46:01;8.60;;;3.47;;
5730;SDS011;2890;51.950;7.668;2023-09-19T11:48:30;7.20;;;3.30;;
5730;SDS011;2890;51.950;7.668;2023-09-19T11:50:57;9.53;;;4.20;;
5730;SDS011;2890;51.950;7.668;2023-09-19T11:53:24;10.40;;;3.43;;
5730;SDS011;2890;51.950;7.668;2023-09-19T11:55:59;10.40;;;3.07;;
5730;SDS011;2890;51.950;7.668;2023-09-19T11:58:26;8.53;;;3.20;;
5730;SDS011;2890;51.950;7.668;2023-09-19T12:00:54;8.13;;;3.20;;
5730;SDS011;2890;51.950;7.668;2023-09-19T12:03:23;9.90;;;3.50;;
5730;SDS011;2890;51.950;7.668;2023-09-19T12:05:55;6.90;;;3.90;;
5730;SDS011;2890;51.950;7.668;2023-09-19T12:08:23;9.60;;;3.63;;
5730;SDS011;2890;51.950;7.668;2023-09-19T12:10:51;7.43;;;3.30;;
5730;SDS011;2890;51.950;7.668;2023-09-19T12:13:21;5.30;;;3.10;;
5730;SDS011;2890;51.950;7.668;2023-09-19T12:15:47;10.70;;;3.50;;
5730;SDS011;2890;51.950;7.668;2023-09-19T12:18:28;9.60;;;4.07;;
5730;SDS011;2890;51.950;7.668;2023-09-19T12:21:00;6.27;;;3.00;;
5730;SDS011;2890;51.950;7.668;2023-09-19T12:23:29;10.20;;;3.77;;
5730;SDS011;2890;51.950;7.668;2023-09-19T12:25:56;7.03;;;3.17;;
5730;SDS011;2890;51.950;7.668;2023-09-19T12:28:26;5.53;;;2.60;;
5730;SDS011;2890;51.950;7.668;2023-09-19T12:30:55;9.57;;;2.93;;
5730;SDS011;2890;51.950;7.668;2023-09-19T12:33:23;9.30;;;2.60;;
5730;SDS011;2890;51.950;7.668;2023-09-19T12:35:50;6.13;;;2.40;;
5730;SDS011;2890;51.950;7.668;2023-09-19T12:38:24;7.27;;;2.33;;
5730;SDS011;2890;51.950;7.668;2023-09-19T12:40:51;4.90;;;2.33;;
5730;SDS011;2890;51.950;7.668;2023-09-19T12:43:18;12.87;;;3.23;;
5730;SDS011;2890;51.950;7.668;2023-09-19T12:45:46;7.47;;;3.00;;
5730;SDS011;2890;51.950;7.668;2023-09-19T12:48:20;7.60;;;2.87;;
5730;SDS011;2890;51.950;7.668;2023-09-19T12:51:03;7.07;;;2.40;;
5730;SDS011;2890;51.950;7.668;2023-09-19T12:53:32;8.67;;;3.43;;
5730;SDS011;2890;51.950;7.668;2023-09-19T12:56:03;15.43;;;3.40;;
5730;SDS011;2890;51.950;7.668;2023-09-19T12:58:32;10.70;;;2.60;;
5730;SDS011;2890;51.950;7.668;2023-09-19T13:01:01;7.20;;;2.90;;
5730;SDS011;2890;51.950;7.668;2023-09-19T13:03:30;8.70;;;2.97;;
5730;SDS011;2890;51.950;7.668;2023-09-19T13:06:00;7.50;;;2.80;;
5730;SDS011;2890;51.950;7.668;2023-09-19T13:08:29;7.47;;;2.77;;
5730;SDS011;2890;51.950;7.668;2023-09-19T13:11:05;6.37;;;2.70;;
5730;SDS011;2890;51.950;7.668;2023-09-19T13:13:35;5.70;;;2.17;;
5730;SDS011;2890;51.950;7.668;2023-09-19T13:16:03;14.27;;;2.90;;
5730;SDS011;2890;51.950;7.668;2023-09-19T13:18:41;3.43;;;2.10;;
5730;SDS011;2890;51.950;7.668;2023-09-19T13:21:09;12.20;;;2.60;;
5730;SDS011;2890;51.950;7.668;2023-09-19T13:23:40;6.43;;;2.37;;
5730;SDS011;2890;51.950;7.668;2023-09-19T13:26:07;8.20;;;3.20;;
5730;SDS011;2890;51.950;7.668;2023-09-19T13:28:33;7.07;;;2.53;;
5730;SDS011;2890;51.950;7.668;2023-09-19T13:31:00;5.60;;;2.47;;
5730;SDS011;2890;51.950;7.668;2023-09-19T13:33:33;8.93;;;2.67;;
5730;SDS011;2890;51.950;7.668;2023-09-19T13:36:08;4.50;;;2.37;;
5730;SDS011;2890;51.950;7.668;2023-09-19T13:38:35;5.43;;;2.50;;
5730;SDS011;2890;51.950;7.668;2023-09-19T13:41:01;7.57;;;2.97;;
5730;SDS011;2890;51.950;7.668;2023-09-19T13:43:28;6.00;;;2.70;;
5730;SDS011;2890;51.950;7.668;2023-09-19T13:45:54;6.67;;;2.50;;
5730;SDS011;2890;51.950;7.668;2023-09-19T13:48:24;8.43;;;3.47;;
5730;SDS011;2890;51.950;7.668;2023-09-19T13:50:55;5.43;;;2.70;;
5730;SDS011;2890;51.950;7.668;2023-09-19T13:53:21;5.07;;;2.30;;
5730;SDS011;2890;51.950;7.668;2023-09-19T13:55:48;6.50;;;2.03;;
5730;SDS011;2890;51.950;7.668;2023-09-19T13:58:19;4.77;;;2.27;;
5730;SDS011;2890;51.950;7.668;2023-09-19T14:00:52;5.53;;;2.30;;
5730;SDS011;2890;51.950;7.668;2023-09-19T14:03:24;4.70;;;2.30;;
5730;SDS011;2890;51.950;7.668;2023-09-19T14:05:56;7.20;;;2.70;;
5730;SDS011;2890;51.950;7.668;2023-09-19T14:08:23;6.43;;;2.50;;
5730;SDS011;2890;51.950;7.668;2023-09-19T14:10:49;4.47;;;2.50;;
5730;SDS011;2890;51.950;7.668;2023-09-19T14:13:16;7.60;;;2.10;;
5730;SDS011;2890;51.950;7.668;2023-09-19T14:15:42;3.23;;;2.10;;
5730;SDS011;2890;51.950;7.668;2023-09-19T14:18:09;3.30;;;2.20;;
5730;SDS011;2890;51.950;7.668;2023-09-19T14:20:38;3.50;;;2.10;;
5730;SDS011;2890;51.950;7.668;2023-09-19T14:23:06;3.13;;;2.30;;
5730;SDS011;2890;51.950;7.668;2023-09-19T14:25:33;5.23;;;2.20;;
5730;SDS011;2890;51.950;7.668;2023-09-19T14:28:00;7.57;;;2.17;;
5730;SDS011;2890;51.950;7.668;2023-09-19T14:30:27;5.23;;;2.20;;
5730;SDS011;2890;51.950;7.668;2023-09-19T14:32:54;6.00;;;2.00;;
5730;SDS011;2890;51.950;7.668;2023-09-19T14:35:21;8.53;;;2.57;;
5730;SDS011;2890;51.950;7.668;2023-09-19T14:37:49;8.07;;;2.53;;
5730;SDS011;2890;51.950;7.668;2023-09-19T14:40:16;4.63;;;2.17;;
5730;SDS011;2890;51.950;7.668;2023-09-19T14:42:43;6.23;;;2.10;;
5730;SDS011;2890;51.950;7.668;2023-09-19T14:45:10;5.70;;;2.00;;
5730;SDS011;2890;51.950;7.668;2023-09-19T14:47:39;4.10;;;1.97;;
5730;SDS011;2890;51.950;7.668;2023-09-19T14:50:07;5.90;;;1.70;;
5730;SDS011;2890;51.950;7.668;2023-09-19T14:52:34;6.13;;;2.03;;
5730;SDS011;2890;51.950;7.668;2023-09-19T14:55:02;6.13;;;2.23;;
5730;SDS011;2890;51.950;7.668;2023-09-19T14:57:31;10.13;;;2.10;;
5730;SDS011;2890;51.950;7.668;2023-09-19T14:59:58;5.17;;;1.53;;
5730;SDS011;2890;51.950;7.668;2023-09-19T15:02:25;5.53;;;1.80;;
5730;SDS011;2890;51.950;7.668;2023-09-19T15:04:52;6.10;;;1.93;;
5730;SDS011;2890;51.950;7.668;2023-09-19T15:07:18;4.13;;;1.77;;
5730;SDS011;2890;51.950;7.668;2023-09-19T15:09:45;5.07;;;1.80;;
5730;SDS011;2890;51.950;7.668;2023-09-19T15:12:13;5.60;;;1.93;;
5730;SDS011;2890;51.950;7.668;2023-09-19T15:14:40;7.47;;;1.73;;
5730;SDS011;2890;51.950;7.668;2023-09-19T15:17:07;8.17;;;1.97;;
5730;SDS011;2890;51.950;7.668;2023-09-19T15:19:34;15.57;;;2.13;;
5730;SDS011;2890;51.950;7.668;2023-09-19T15:22:02;7.40;;;2.43;;
5730;SDS011;2890;51.950;7.668;2023-09-19T15:24:29;3.30;;;1.97;;
5730;SDS011;2890;51.950;7.668;2023-09-19T15:27:00;3.67;;;1.70;;
5730;SDS011;2890;51.950;7.668;2023-09-19T15:29:28;6.77;;;1.73;;
5730;SDS011;2890;51.950;7.668;2023-09-19T15:31:55;5.50;;;1.67;;
5730;SDS011;2890;51.950;7.668;2023-09-19T15:34:23;4.17;;;1.60;;
5730;SDS011;2890;51.950;7.668;2023-09-19T15:36:50;5.80;;;1.67;;
5730;SDS011;2890;51.950;7.668;2023-09-19T15:39:21;5.80;;;2.20;;